createdAt,value
2023-03-24T00:00:20.604Z,7.60
2023-03-24T00:02:49.220Z,5.68
2023-03-24T00:05:19.348Z,7.55
2023-03-24T00:07:47.629Z,6.95
2023-03-24T00:10:18.244Z,10.32
2023-03-24T00:12:46.869Z,8.40
2023-03-24T00:15:19.897Z,11.55
2023-03-24T00:17:50.715Z,9.75
2023-03-24T00:20:21.008Z,6.65
2023-03-24T00:22:56.970Z,7.28
2023-03-24T00:25:34.015Z,8.40
2023-03-24T00:28:01.542Z,9.77
2023-03-24T00:30:28.631Z,7.82
2023-03-24T00:32:55.927Z,6.47
2023-03-24T00:35:23.536Z,6.97
2023-03-24T00:37:52.276Z,6.32
2023-03-24T00:40:21.428Z,7.90
2023-03-24T00:42:50.483Z,3.10
2023-03-24T00:45:20.591Z,6.15
2023-03-24T00:47:50.248Z,6.90
2023-03-24T00:50:20.668Z,8.98
2023-03-24T00:52:49.290Z,13.80
2023-03-24T00:55:17.091Z,9.10
2023-03-24T00:57:52.236Z,8.00
2023-03-24T01:00:24.972Z,10.93
2023-03-24T01:02:54.121Z,8.10
2023-03-24T01:05:23.577Z,11.55
2023-03-24T01:07:56.524Z,17.40
2023-03-24T01:10:26.893Z,15.35
2023-03-24T01:13:00.097Z,10.43
2023-03-24T01:15:34.648Z,7.43
2023-03-24T01:18:02.906Z,14.02
2023-03-24T01:20:35.618Z,10.10
2023-03-24T01:23:05.885Z,12.70
2023-03-24T01:25:34.221Z,15.60
2023-03-24T01:28:01.870Z,22.60
2023-03-24T01:30:30.498Z,19.23
2023-03-24T01:32:58.086Z,16.52
2023-03-24T01:35:29.407Z,16.27
2023-03-24T01:37:57.518Z,22.25
2023-03-24T01:40:30.541Z,11.65
2023-03-24T01:42:58.626Z,20.02
2023-03-24T01:45:45.414Z,20.27
2023-03-24T01:48:47.318Z,20.02
2023-03-24T01:51:26.061Z,14.32
2023-03-24T01:54:01.825Z,9.30
2023-03-24T01:56:32.646Z,14.57
2023-03-24T01:59:03.755Z,10.75
2023-03-24T02:01:31.980Z,15.07
2023-03-24T02:04:04.102Z,11.20
2023-03-24T02:06:34.614Z,11.77
2023-03-24T02:09:01.773Z,11.25
2023-03-24T02:11:33.435Z,12.43
2023-03-24T02:14:00.635Z,11.50
2023-03-24T02:16:45.929Z,12.00
2023-03-24T02:19:27.906Z,11.77
2023-03-24T02:22:31.688Z,16.40
2023-03-24T02:25:10.690Z,11.15
2023-03-24T02:27:44.113Z,14.90
2023-03-24T02:30:40.335Z,9.25
2023-03-24T02:33:22.935Z,9.95
2023-03-24T02:36:21.369Z,6.00
2023-03-24T02:39:25.936Z,6.10
2023-03-24T02:42:04.825Z,12.60
2023-03-24T02:44:59.793Z,10.63
2023-03-24T02:47:51.846Z,9.20
2023-03-24T02:50:43.999Z,14.95
2023-03-24T02:53:39.002Z,6.90
2023-03-24T02:56:18.390Z,9.27
2023-03-24T02:58:54.924Z,15.63
2023-03-24T03:01:41.471Z,13.40
2023-03-24T03:04:14.256Z,8.65
2023-03-24T03:06:47.039Z,7.65
2023-03-24T03:09:20.072Z,11.10
2023-03-24T03:11:51.873Z,12.82
2023-03-24T03:14:32.884Z,12.50
2023-03-24T03:17:21.230Z,11.30
2023-03-24T03:19:55.765Z,20.98
2023-03-24T03:22:28.028Z,13.32
2023-03-24T03:24:57.957Z,15.93
2023-03-24T03:27:29.514Z,10.43
2023-03-24T03:30:06.437Z,10.15
2023-03-24T03:32:39.438Z,16.40
2023-03-24T03:35:27.029Z,10.52
2023-03-24T03:38:17.662Z,10.98
2023-03-24T03:41:00.792Z,11.57
2023-03-24T03:43:28.754Z,17.73
2023-03-24T03:45:56.339Z,17.73
2023-03-24T03:48:26.504Z,17.15
2023-03-24T03:51:03.089Z,16.33
2023-03-24T03:53:52.845Z,10.10
2023-03-24T03:56:23.591Z,11.30
2023-03-24T03:58:51.122Z,15.82
2023-03-24T04:01:27.945Z,13.45
2023-03-24T04:04:14.382Z,19.00
2023-03-24T04:07:08.345Z,17.23
2023-03-24T04:09:57.070Z,13.35
2023-03-24T04:12:49.100Z,12.23
2023-03-24T04:15:35.807Z,17.17
2023-03-24T04:18:47.563Z,16.48
2023-03-24T04:21:36.228Z,12.68
2023-03-24T04:24:41.609Z,18.40
2023-03-24T04:27:17.949Z,13.38
2023-03-24T04:30:33.241Z,11.90
2023-03-24T04:33:10.361Z,9.15
2023-03-24T04:35:47.239Z,9.57
2023-03-24T04:38:25.869Z,15.80
2023-03-24T04:40:55.797Z,9.30
2023-03-24T04:43:28.337Z,9.57
2023-03-24T04:45:58.186Z,12.50
2023-03-24T04:48:26.800Z,12.15
2023-03-24T04:51:04.092Z,11.90
2023-03-24T04:53:31.032Z,12.45
2023-03-24T04:56:01.004Z,8.82
2023-03-24T04:58:27.938Z,8.32
2023-03-24T05:00:56.689Z,10.82
2023-03-24T05:03:23.856Z,8.00
2023-03-24T05:05:52.429Z,11.27
2023-03-24T05:08:20.758Z,15.40
2023-03-24T05:10:47.811Z,13.80
2023-03-24T05:13:15.872Z,11.80
2023-03-24T05:15:43.522Z,12.55
2023-03-24T05:18:11.252Z,11.57
2023-03-24T05:20:38.685Z,10.90
2023-03-24T05:23:05.881Z,14.98
2023-03-24T05:25:33.104Z,8.10
2023-03-24T05:28:00.328Z,8.70
2023-03-24T05:30:27.895Z,9.13
2023-03-24T05:32:55.013Z,11.15
2023-03-24T05:35:22.150Z,8.65
2023-03-24T05:37:49.259Z,11.85
2023-03-24T05:40:16.666Z,10.63
2023-03-24T05:42:44.320Z,6.70
2023-03-24T05:45:12.860Z,6.50
2023-03-24T05:47:39.925Z,6.47
2023-03-24T05:50:10.742Z,13.40
2023-03-24T05:52:37.722Z,5.68
2023-03-24T05:55:05.071Z,14.07
2023-03-24T05:57:34.827Z,8.88
2023-03-24T06:00:05.543Z,5.63
2023-03-24T06:02:35.028Z,5.60
2023-03-24T06:05:02.538Z,6.13
2023-03-24T06:07:31.004Z,8.77
2023-03-24T06:10:03.256Z,8.27
2023-03-24T06:12:31.045Z,4.78
2023-03-24T06:14:58.646Z,5.82
2023-03-24T06:17:25.904Z,3.80
2023-03-24T06:19:52.925Z,10.80
2023-03-24T06:22:21.105Z,9.23
2023-03-24T06:24:50.323Z,10.07
2023-03-24T06:27:18.848Z,7.10
2023-03-24T06:29:45.774Z,8.35
2023-03-24T06:32:12.873Z,9.20
2023-03-24T06:34:40.837Z,6.05
2023-03-24T06:37:08.093Z,8.85
2023-03-24T06:39:35.369Z,7.22
2023-03-24T06:42:02.559Z,4.93
2023-03-24T06:44:29.677Z,8.05
2023-03-24T06:46:56.669Z,9.20
2023-03-24T06:49:23.857Z,3.90
2023-03-24T06:51:51.144Z,8.88
2023-03-24T06:54:18.477Z,9.13
2023-03-24T06:56:45.513Z,11.77
2023-03-24T06:59:12.701Z,6.15
2023-03-24T07:01:40.158Z,11.70
2023-03-24T07:04:07.352Z,8.10
2023-03-24T07:06:43.111Z,11.65
2023-03-24T07:09:19.119Z,6.50
2023-03-24T07:11:46.542Z,6.07
2023-03-24T07:14:13.462Z,6.28
2023-03-24T07:16:40.813Z,7.90
2023-03-24T07:19:07.888Z,3.70
2023-03-24T07:21:34.995Z,4.80
2023-03-24T07:24:02.418Z,5.78
2023-03-24T07:26:29.505Z,8.18
2023-03-24T07:28:56.976Z,8.00
2023-03-24T07:31:25.019Z,6.25
2023-03-24T07:33:54.645Z,3.05
2023-03-24T07:36:21.927Z,5.63
2023-03-24T07:38:49.405Z,5.10
2023-03-24T07:41:16.385Z,7.88
2023-03-24T07:43:43.350Z,5.07
2023-03-24T07:46:11.037Z,6.07
2023-03-24T07:48:38.115Z,4.88
2023-03-24T07:51:05.465Z,3.83
2023-03-24T07:53:32.760Z,5.70
2023-03-24T07:56:00.547Z,2.90
2023-03-24T07:58:27.485Z,1.45
2023-03-24T08:00:54.555Z,2.97
2023-03-24T08:03:28.373Z,1.95
2023-03-24T08:05:55.802Z,2.20
2023-03-24T08:08:22.993Z,2.85
2023-03-24T08:10:51.426Z,1.90
2023-03-24T08:13:18.545Z,2.50
2023-03-24T08:15:46.115Z,1.10
2023-03-24T08:18:13.407Z,3.13
2023-03-24T08:20:40.906Z,1.92
2023-03-24T08:23:08.811Z,3.65
2023-03-24T08:25:37.489Z,1.92
2023-03-24T08:28:05.203Z,2.15
2023-03-24T08:30:32.377Z,2.25
2023-03-24T08:33:01.998Z,1.27
2023-03-24T08:35:34.650Z,1.42
2023-03-24T08:38:06.026Z,0.43
2023-03-24T08:40:34.900Z,0.30
2023-03-24T08:43:04.414Z,0.50
2023-03-24T08:45:33.038Z,0.55
2023-03-24T08:48:02.626Z,0.20
2023-03-24T08:50:34.610Z,2.75
2023-03-24T08:53:02.691Z,0.70
2023-03-24T08:55:30.090Z,1.25
2023-03-24T08:57:57.462Z,0.30
2023-03-24T09:00:25.886Z,0.20
2023-03-24T09:02:55.001Z,0.90
2023-03-24T09:05:33.301Z,0.40
2023-03-24T09:08:08.334Z,0.30
2023-03-24T09:10:35.981Z,1.15
2023-03-24T09:13:04.560Z,0.68
2023-03-24T09:15:31.949Z,0.30
2023-03-24T09:17:59.142Z,0.32
2023-03-24T09:20:27.478Z,0.20
2023-03-24T09:22:56.204Z,0.28
2023-03-24T09:25:23.886Z,1.00
2023-03-24T09:27:51.417Z,0.40
2023-03-24T09:30:19.699Z,0.45
2023-03-24T09:32:46.894Z,0.93
2023-03-24T09:35:15.148Z,0.40
2023-03-24T09:37:44.073Z,0.63
2023-03-24T09:40:21.517Z,0.47
2023-03-24T09:43:03.392Z,1.50
2023-03-24T09:45:45.196Z,1.90
2023-03-24T09:48:24.931Z,1.10
2023-03-24T09:51:23.651Z,1.30
2023-03-24T09:54:09.839Z,1.85
2023-03-24T09:56:43.158Z,0.20
2023-03-24T09:59:37.922Z,1.13
2023-03-24T10:02:14.042Z,0.60
2023-03-24T10:04:42.635Z,0.60
2023-03-24T10:07:25.556Z,0.22
2023-03-24T10:10:01.156Z,1.48
2023-03-24T10:12:40.184Z,1.67
2023-03-24T10:15:34.688Z,0.90
2023-03-24T10:18:13.499Z,0.73
2023-03-24T10:21:13.760Z,0.60
2023-03-24T10:24:06.511Z,0.85
2023-03-24T10:26:47.007Z,0.90
2023-03-24T10:29:26.150Z,0.50
2023-03-24T10:32:22.528Z,1.10
2023-03-24T10:34:56.204Z,0.82
2023-03-24T10:37:23.815Z,1.35
2023-03-24T10:39:51.969Z,2.20
2023-03-24T10:42:24.863Z,0.77
2023-03-24T10:44:53.337Z,0.95
2023-03-24T10:47:27.543Z,1.50
2023-03-24T10:50:00.927Z,0.68
2023-03-24T10:52:42.909Z,0.88
2023-03-24T10:55:19.444Z,0.30
2023-03-24T10:57:55.377Z,2.00
2023-03-24T11:00:30.079Z,0.70
2023-03-24T11:03:12.038Z,1.05
2023-03-24T11:05:41.575Z,0.40
2023-03-24T11:08:17.794Z,1.35
2023-03-24T11:10:45.270Z,0.55
2023-03-24T11:13:28.906Z,0.35
2023-03-24T11:16:17.598Z,0.57
2023-03-24T11:19:01.380Z,0.38
2023-03-24T11:21:30.881Z,0.73
2023-03-24T11:24:12.128Z,0.63
2023-03-24T11:26:41.578Z,0.28
2023-03-24T11:29:14.915Z,0.43
2023-03-24T11:31:42.636Z,0.40
2023-03-24T11:34:39.003Z,0.45
2023-03-24T11:37:12.724Z,0.30
2023-03-24T11:39:39.823Z,0.10
2023-03-24T11:42:12.885Z,0.13
2023-03-24T11:44:39.889Z,0.40
2023-03-24T11:47:22.640Z,1.08
2023-03-24T11:49:52.948Z,0.10
2023-03-24T11:52:29.100Z,0.20
2023-03-24T11:54:56.280Z,0.70
2023-03-24T11:57:54.244Z,0.30
2023-03-24T12:00:30.877Z,1.05
2023-03-24T12:03:50.943Z,0.20
2023-03-24T12:06:35.788Z,1.08
2023-03-24T12:09:22.498Z,0.93
2023-03-24T12:12:13.235Z,0.20
2023-03-24T12:15:24.700Z,0.75
2023-03-24T12:18:34.598Z,0.20
2023-03-24T12:21:21.052Z,3.63
2023-03-24T12:23:58.642Z,0.43
2023-03-24T12:26:31.000Z,0.13
2023-03-24T12:29:16.664Z,0.63
2023-03-24T12:32:31.097Z,0.70
2023-03-24T12:35:00.849Z,0.43
2023-03-24T12:37:46.218Z,0.20
2023-03-24T12:40:31.409Z,0.20
2023-03-24T12:43:26.028Z,0.17
2023-03-24T12:45:56.576Z,0.43
2023-03-24T12:48:47.547Z,0.10
2023-03-24T12:51:21.019Z,0.60
2023-03-24T12:54:32.397Z,0.50
2023-03-24T12:57:04.763Z,1.08
2023-03-24T12:59:44.492Z,0.65
2023-03-24T13:02:31.050Z,0.40
2023-03-24T13:05:06.284Z,0.43
2023-03-24T13:07:44.042Z,0.88
2023-03-24T13:10:31.266Z,0.22
2023-03-24T13:13:21.789Z,0.57
2023-03-24T13:15:56.378Z,0.32
2023-03-24T13:18:43.410Z,0.30
2023-03-24T13:21:29.834Z,0.22
2023-03-24T13:24:09.902Z,0.25
2023-03-24T13:26:50.126Z,0.10
2023-03-24T13:29:55.930Z,0.30
2023-03-24T13:32:24.177Z,1.05
2023-03-24T13:34:54.741Z,0.75
2023-03-24T13:37:28.002Z,0.20
2023-03-24T13:40:06.928Z,0.20
2023-03-24T13:42:37.769Z,0.20
2023-03-24T13:45:07.574Z,0.52
2023-03-24T13:48:12.008Z,0.08
2023-03-24T13:50:46.684Z,0.25
2023-03-24T13:53:15.780Z,0.93
2023-03-24T13:55:52.456Z,0.10
2023-03-24T13:58:28.663Z,0.00
2023-03-24T14:01:06.504Z,0.17
2023-03-24T14:03:47.555Z,0.20
2023-03-24T14:06:18.256Z,0.55
2023-03-24T14:09:02.026Z,0.80
2023-03-24T14:11:32.430Z,0.43
2023-03-24T14:14:14.544Z,0.20
2023-03-24T14:17:00.286Z,0.28
2023-03-24T14:19:32.096Z,0.20
2023-03-24T14:22:14.586Z,0.30
2023-03-24T14:24:44.808Z,0.10
2023-03-24T14:27:43.056Z,0.20
2023-03-24T14:30:19.044Z,0.47
2023-03-24T14:33:02.856Z,0.25
2023-03-24T14:35:47.043Z,0.30
2023-03-24T14:38:24.166Z,0.60
2023-03-24T14:40:56.959Z,0.30
2023-03-24T14:43:31.448Z,0.15
2023-03-24T14:46:00.318Z,0.30
2023-03-24T14:48:42.105Z,0.20
2023-03-24T14:51:38.507Z,0.63
2023-03-24T14:54:18.314Z,0.10
2023-03-24T14:56:50.165Z,0.20
2023-03-24T14:59:31.058Z,0.47
2023-03-24T15:02:37.688Z,0.45
2023-03-24T15:05:23.485Z,0.05
2023-03-24T15:08:21.126Z,0.20
2023-03-24T15:10:56.917Z,0.20
2023-03-24T15:13:28.198Z,0.15
2023-03-24T15:15:55.649Z,0.20
2023-03-24T15:18:23.447Z,0.20
2023-03-24T15:20:51.191Z,0.10
2023-03-24T15:23:23.072Z,0.38
2023-03-24T15:25:50.844Z,1.88
2023-03-24T15:28:26.797Z,0.20
2023-03-24T15:30:56.363Z,0.20
2023-03-24T15:33:23.735Z,0.50
2023-03-24T15:35:57.205Z,0.20
2023-03-24T15:38:33.873Z,0.10
2023-03-24T15:41:08.854Z,0.00
2023-03-24T15:43:43.901Z,0.10
2023-03-24T15:46:29.287Z,0.10
2023-03-24T15:48:58.804Z,0.63
2023-03-24T15:51:52.072Z,0.55
2023-03-24T15:54:28.645Z,0.10
2023-03-24T15:57:13.691Z,0.08
2023-03-24T15:59:46.253Z,0.22
2023-03-24T16:02:24.490Z,0.05
2023-03-24T16:05:04.080Z,0.52
2023-03-24T16:07:37.749Z,0.32
2023-03-24T16:10:07.112Z,0.10
2023-03-24T16:12:36.433Z,0.40
2023-03-24T16:15:05.984Z,0.40
2023-03-24T16:17:33.600Z,0.60
2023-03-24T16:20:00.697Z,0.30
2023-03-24T16:22:28.023Z,0.15
2023-03-24T16:24:54.977Z,0.20
2023-03-24T16:27:22.048Z,0.85
2023-03-24T16:29:49.761Z,1.38
2023-03-24T16:32:17.325Z,0.40
2023-03-24T16:34:44.301Z,0.50
2023-03-24T16:37:11.458Z,0.22
2023-03-24T16:39:38.543Z,0.60
2023-03-24T16:42:05.963Z,0.17
2023-03-24T16:44:33.461Z,0.40
2023-03-24T16:47:00.722Z,0.45
2023-03-24T16:49:27.926Z,0.10
2023-03-24T16:51:55.118Z,0.50
2023-03-24T16:54:22.483Z,0.20
2023-03-24T16:56:49.846Z,0.40
2023-03-24T16:59:17.180Z,0.55
2023-03-24T17:01:46.417Z,0.40
2023-03-24T17:04:23.697Z,0.30
2023-03-24T17:06:55.479Z,0.85
2023-03-24T17:09:23.050Z,0.20
2023-03-24T17:11:56.233Z,0.70
2023-03-24T17:14:23.473Z,2.75
2023-03-24T17:16:53.390Z,0.40
2023-03-24T17:19:23.056Z,1.02
2023-03-24T17:22:03.922Z,0.35
2023-03-24T17:24:41.684Z,0.52
2023-03-24T17:27:16.861Z,0.55
2023-03-24T17:29:43.917Z,0.80
2023-03-24T17:32:11.589Z,0.68
2023-03-24T17:34:38.568Z,0.65
2023-03-24T17:37:06.668Z,0.77
2023-03-24T17:39:33.765Z,0.85
2023-03-24T17:42:01.717Z,1.23
2023-03-24T17:44:29.266Z,0.60
2023-03-24T17:46:56.662Z,0.40
2023-03-24T17:49:23.840Z,0.93
2023-03-24T17:51:51.046Z,1.35
2023-03-24T17:54:20.683Z,0.85
2023-03-24T17:56:47.934Z,1.48
2023-03-24T17:59:15.030Z,0.60
2023-03-24T18:01:42.287Z,0.63
2023-03-24T18:04:09.706Z,0.60
2023-03-24T18:06:38.629Z,0.60
2023-03-24T18:09:05.828Z,1.00
2023-03-24T18:11:32.941Z,0.60
2023-03-24T18:14:00.167Z,1.70
2023-03-24T18:16:30.257Z,0.65
2023-03-24T18:18:58.370Z,0.50
2023-03-24T18:21:25.763Z,0.68
2023-03-24T18:23:52.961Z,0.70
2023-03-24T18:26:20.470Z,0.68
2023-03-24T18:28:47.442Z,0.40
2023-03-24T18:31:18.154Z,0.65
2023-03-24T18:33:46.268Z,0.63
2023-03-24T18:36:16.800Z,0.65
2023-03-24T18:38:44.524Z,0.50
2023-03-24T18:41:13.217Z,0.57
2023-03-24T18:43:41.184Z,1.63
2023-03-24T18:46:10.465Z,2.08
2023-03-24T18:48:38.336Z,1.17
2023-03-24T18:51:06.278Z,0.80
2023-03-24T18:53:36.910Z,1.45
2023-03-24T18:56:05.786Z,2.95
2023-03-24T18:58:33.778Z,1.90
2023-03-24T19:01:07.301Z,2.33
2023-03-24T19:03:35.774Z,1.35
2023-03-24T19:06:07.058Z,2.10
2023-03-24T19:08:41.407Z,4.18
2023-03-24T19:11:11.631Z,1.50
2023-03-24T19:13:39.942Z,2.35
2023-03-24T19:16:09.200Z,2.15
2023-03-24T19:18:37.306Z,2.70
2023-03-24T19:21:07.095Z,2.17
2023-03-24T19:23:34.744Z,4.40
2023-03-24T19:26:02.822Z,2.67
2023-03-24T19:28:31.937Z,3.75
2023-03-24T19:31:01.109Z,2.88
2023-03-24T19:33:28.372Z,2.05
2023-03-24T19:35:55.607Z,3.90
2023-03-24T19:38:24.168Z,2.65
2023-03-24T19:40:54.486Z,3.45
2023-03-24T19:43:25.493Z,2.22
2023-03-24T19:45:55.083Z,4.05
2023-03-24T19:48:23.250Z,5.22
2023-03-24T19:50:53.100Z,7.40
2023-03-24T19:53:21.364Z,6.10
2023-03-24T19:55:49.246Z,5.07
2023-03-24T19:58:17.407Z,3.30
2023-03-24T20:00:44.376Z,4.97
2023-03-24T20:03:11.634Z,4.28
2023-03-24T20:05:38.680Z,3.53
2023-03-24T20:08:06.208Z,4.00
2023-03-24T20:10:35.782Z,4.75
2023-03-24T20:13:02.878Z,5.07
2023-03-24T20:15:30.459Z,5.95
2023-03-24T20:17:57.470Z,2.47
2023-03-24T20:20:24.563Z,5.00
2023-03-24T20:22:51.698Z,2.03
2023-03-24T20:25:19.474Z,2.75
2023-03-24T20:27:48.145Z,4.50
2023-03-24T20:30:17.289Z,3.85
2023-03-24T20:32:44.534Z,3.10
2023-03-24T20:35:12.282Z,3.03
2023-03-24T20:37:39.488Z,4.25
2023-03-24T20:40:09.621Z,2.47
2023-03-24T20:42:37.627Z,3.45
2023-03-24T20:45:09.139Z,3.80
2023-03-24T20:47:36.928Z,2.70
2023-03-24T20:50:06.187Z,1.77
2023-03-24T20:52:33.292Z,1.30
2023-03-24T20:55:06.478Z,3.88
2023-03-24T20:57:34.342Z,2.08
2023-03-24T21:00:02.328Z,2.50
2023-03-24T21:02:31.842Z,2.33
2023-03-24T21:04:58.895Z,2.80
2023-03-24T21:07:26.884Z,2.30
2023-03-24T21:09:53.813Z,2.40
2023-03-24T21:12:22.007Z,2.28
2023-03-24T21:14:49.529Z,1.95
2023-03-24T21:17:18.611Z,1.83
2023-03-24T21:19:47.156Z,4.82
2023-03-24T21:22:15.492Z,2.38
2023-03-24T21:24:42.526Z,3.65
2023-03-24T21:27:09.814Z,2.45
2023-03-24T21:29:36.926Z,2.10
2023-03-24T21:32:04.038Z,1.60
2023-03-24T21:34:31.559Z,1.73
2023-03-24T21:37:01.354Z,1.40
2023-03-24T21:39:28.506Z,1.33
2023-03-24T21:41:55.641Z,3.40
2023-03-24T21:44:23.579Z,1.75
2023-03-24T21:46:50.783Z,3.35
2023-03-24T21:49:19.099Z,2.35
2023-03-24T21:51:46.971Z,1.55
2023-03-24T21:54:15.247Z,2.95
2023-03-24T21:56:42.591Z,1.83
2023-03-24T21:59:11.443Z,2.90
2023-03-24T22:01:38.716Z,2.95
2023-03-24T22:04:08.981Z,2.17
2023-03-24T22:06:38.765Z,3.78
2023-03-24T22:09:07.030Z,2.95
2023-03-24T22:11:35.644Z,4.88
2023-03-24T22:14:03.787Z,4.60
2023-03-24T22:16:31.210Z,2.47
2023-03-24T22:18:58.706Z,3.85
2023-03-24T22:21:25.834Z,5.13
2023-03-24T22:23:52.888Z,3.25
2023-03-24T22:26:20.150Z,4.45
2023-03-24T22:28:47.118Z,4.65
2023-03-24T22:31:17.556Z,3.28
2023-03-24T22:33:45.618Z,4.05
2023-03-24T22:36:12.676Z,4.82
2023-03-24T22:38:39.909Z,5.68
2023-03-24T22:41:10.210Z,3.17
2023-03-24T22:43:39.739Z,4.28
2023-03-24T22:46:07.096Z,3.13
2023-03-24T22:48:34.160Z,2.80
2023-03-24T22:51:01.154Z,3.10
2023-03-24T22:53:28.406Z,2.65
2023-03-24T22:55:55.772Z,4.22
2023-03-24T22:58:22.978Z,2.95
2023-03-24T23:00:51.195Z,3.45
2023-03-24T23:03:18.294Z,3.22
2023-03-24T23:05:46.329Z,3.60
2023-03-24T23:08:15.473Z,2.72
2023-03-24T23:10:44.518Z,4.00
2023-03-24T23:13:12.223Z,2.20
2023-03-24T23:15:42.699Z,3.28
2023-03-24T23:18:10.639Z,2.88
2023-03-24T23:20:37.865Z,3.58
2023-03-24T23:23:06.788Z,2.42
2023-03-24T23:25:40.094Z,4.32
2023-03-24T23:28:07.634Z,2.60
2023-03-24T23:30:35.038Z,1.80
2023-03-24T23:33:04.383Z,1.58
2023-03-24T23:35:33.411Z,2.67
2023-03-24T23:38:02.568Z,2.60
2023-03-24T23:40:29.874Z,1.83
2023-03-24T23:42:56.918Z,1.92
2023-03-24T23:45:24.071Z,2.25
2023-03-24T23:47:52.137Z,1.20
2023-03-24T23:50:20.759Z,1.40
2023-03-24T23:52:48.295Z,1.55
2023-03-24T23:55:18.330Z,1.15
2023-03-24T23:57:46.869Z,1.23
